CheckWX is a tool to help pilots better visualize weather data.  It is not intended as a substitute for an official pre-flight weather briefing.

15:36:06 UTC

EKVG METAR
Vagar Airport
Vagar, Denmark
Current

16 mins ago

EKVG 201520Z AUTO 29005KT 9999NDV BKN011/// 11/09 Q1014
Observed
May-20 @ 15:20 UTC
Wind
  • 290° at 5 KTS
Visibility
Cloud Levels
  • Broken at 1,100' AGL
Temperature
11°C / 52°F
Dewpoint
C / 48°F
Humidity
88%
Altimeter
29.94" Hg
Pressure
1013.92 hPa
Previous

46 mins ago

EKVG 201450Z AUTO 17003KT 9999NDV BKN008/// 11/09 Q1014 RMK BKN011/// WIND SKEID 29004KT 260V320
Observed
May-20 @ 14:50 UTC
Wind
  • 170° at 3 KTS
Visibility
Cloud Levels
  • Broken at 800' AGL
Temperature
11°C / 52°F
Dewpoint
C / 48°F
Humidity
88%
Altimeter
29.94" Hg
Pressure
1013.92 hPa
Previous

1 hour ago

EKVG 201420Z AUTO 18005KT 140V210 9999NDV BKN009/// 11/08 Q1014 RMK BKN013/// BKN030/// WIND SKEID VRB02KT
Observed
May-20 @ 14:20 UTC
Wind
  • 180° at 5 KTS
Visibility
Cloud Levels
  • Broken at 900' AGL
Temperature
11°C / 52°F
Dewpoint
C / 46°F
Humidity
82%
Altimeter
29.94" Hg
Pressure
1013.92 hPa